createdAt,value
2023-02-19T00:01:55.941Z,1.25
2023-02-19T00:04:29.421Z,2.30
2023-02-19T00:07:04.317Z,2.30
2023-02-19T00:09:37.768Z,2.67
2023-02-19T00:12:11.392Z,2.42
2023-02-19T00:14:44.955Z,2.13
2023-02-19T00:17:18.399Z,2.53
2023-02-19T00:19:51.881Z,0.90
2023-02-19T00:22:26.803Z,0.82
2023-02-19T00:25:00.353Z,0.50
2023-02-19T00:27:34.347Z,0.90
2023-02-19T00:30:08.598Z,0.70
2023-02-19T00:32:42.372Z,0.68
2023-02-19T00:35:17.855Z,1.05
2023-02-19T00:37:52.896Z,0.40
2023-02-19T00:40:26.975Z,0.30
2023-02-19T00:43:00.490Z,0.38
2023-02-19T00:45:35.034Z,0.20
2023-02-19T00:48:08.518Z,0.30
2023-02-19T00:50:41.985Z,0.40
2023-02-19T00:53:16.935Z,0.30
2023-02-19T00:55:50.418Z,0.28
2023-02-19T00:58:23.918Z,0.30
2023-02-19T01:00:57.490Z,0.17
2023-02-19T01:03:31.075Z,0.20
2023-02-19T01:06:05.409Z,0.20
2023-02-19T01:08:40.758Z,0.32
2023-02-19T01:11:15.274Z,0.30
2023-02-19T01:13:48.986Z,0.30
2023-02-19T01:16:24.864Z,0.20
2023-02-19T01:18:59.281Z,0.20
2023-02-19T01:21:33.353Z,0.20
2023-02-19T01:24:08.603Z,0.20
2023-02-19T01:26:42.172Z,0.30
2023-02-19T01:29:15.715Z,0.20
2023-02-19T01:31:49.389Z,0.52
2023-02-19T01:34:22.868Z,0.15
2023-02-19T01:36:56.323Z,0.10
2023-02-19T01:39:31.311Z,0.30
2023-02-19T01:42:06.372Z,0.08
2023-02-19T01:45:18.682Z,0.10
2023-02-19T01:48:07.416Z,0.00
2023-02-19T01:50:45.511Z,0.20
2023-02-19T01:53:22.154Z,0.20
2023-02-19T01:55:59.887Z,0.13
2023-02-19T01:58:36.544Z,0.20
2023-02-19T02:01:10.847Z,0.20
2023-02-19T02:03:48.950Z,0.20
2023-02-19T02:06:26.215Z,0.05
2023-02-19T02:09:27.506Z,0.15
2023-02-19T02:12:02.454Z,0.40
2023-02-19T02:14:38.775Z,0.20
2023-02-19T02:17:21.736Z,0.28
2023-02-19T02:20:13.914Z,0.30
2023-02-19T02:22:54.956Z,0.40
2023-02-19T02:26:00.110Z,0.20
2023-02-19T02:29:01.147Z,0.10
2023-02-19T02:31:42.282Z,0.10
2023-02-19T02:34:20.208Z,0.10
2023-02-19T02:36:56.699Z,0.08
2023-02-19T02:39:32.850Z,0.00
2023-02-19T02:42:21.466Z,0.00
2023-02-19T02:45:37.354Z,0.10
2023-02-19T02:48:37.048Z,0.03
2023-02-19T02:51:20.672Z,0.13
2023-02-19T02:54:25.937Z,0.00
2023-02-19T02:57:02.056Z,0.00
2023-02-19T02:59:42.001Z,0.00
2023-02-19T03:02:19.185Z,0.28
2023-02-19T03:05:18.649Z,0.20
2023-02-19T03:07:57.356Z,0.15
2023-02-19T03:10:36.174Z,0.10
2023-02-19T03:13:32.362Z,0.00
2023-02-19T03:16:28.799Z,0.10
2023-02-19T03:19:21.728Z,0.10
2023-02-19T03:22:01.983Z,0.20
2023-02-19T03:24:56.275Z,0.10
2023-02-19T03:27:34.250Z,0.22
2023-02-19T03:30:14.127Z,0.20
2023-02-19T03:32:50.825Z,0.35
2023-02-19T03:35:27.892Z,0.32
2023-02-19T03:38:10.103Z,0.20
2023-02-19T03:40:54.034Z,0.40
2023-02-19T03:43:37.164Z,0.30
2023-02-19T03:46:15.366Z,0.38
2023-02-19T03:48:57.272Z,0.30
2023-02-19T03:51:38.065Z,0.20
2023-02-19T03:54:19.481Z,0.40
2023-02-19T03:56:59.960Z,0.80
2023-02-19T03:59:38.835Z,0.50
2023-02-19T04:02:16.078Z,0.40
2023-02-19T04:04:54.638Z,0.60
2023-02-19T04:07:32.277Z,1.50
2023-02-19T04:10:09.265Z,1.23
2023-02-19T04:12:53.306Z,1.65
2023-02-19T04:15:30.466Z,1.88
2023-02-19T04:18:08.484Z,1.45
2023-02-19T04:20:44.535Z,1.58
2023-02-19T04:23:21.972Z,1.45
2023-02-19T04:26:01.415Z,1.48
2023-02-19T04:28:35.208Z,1.00
2023-02-19T04:31:09.222Z,1.23
2023-02-19T04:33:42.980Z,1.13
2023-02-19T04:36:16.444Z,1.00
2023-02-19T04:38:49.949Z,0.82
2023-02-19T04:41:24.885Z,0.75
2023-02-19T04:43:58.365Z,0.70
2023-02-19T04:46:32.040Z,0.60
2023-02-19T04:49:05.506Z,0.80
2023-02-19T04:51:39.734Z,1.30
2023-02-19T04:54:13.203Z,1.25
2023-02-19T04:56:48.093Z,2.10
2023-02-19T04:59:21.770Z,1.65
2023-02-19T05:01:55.276Z,1.38
2023-02-19T05:04:28.859Z,2.05
2023-02-19T05:07:02.328Z,1.05
2023-02-19T05:09:35.817Z,1.23
2023-02-19T05:12:10.744Z,2.22
2023-02-19T05:14:44.255Z,0.52
2023-02-19T05:17:17.776Z,0.70
2023-02-19T05:19:51.227Z,0.57
2023-02-19T05:22:24.715Z,0.90
2023-02-19T05:24:58.216Z,1.40
2023-02-19T05:27:33.714Z,2.50
2023-02-19T05:30:07.990Z,2.00
2023-02-19T05:32:41.508Z,2.22
2023-02-19T05:35:14.972Z,2.13
2023-02-19T05:37:48.432Z,1.65
2023-02-19T05:40:21.990Z,2.33
2023-02-19T05:42:56.911Z,2.70
2023-02-19T05:45:30.928Z,3.53
2023-02-19T05:48:04.809Z,4.85
2023-02-19T05:50:40.000Z,3.22
2023-02-19T05:53:19.373Z,4.30
2023-02-19T05:55:52.861Z,8.32
2023-02-19T05:58:28.126Z,5.82
2023-02-19T06:01:01.605Z,9.30
2023-02-19T06:03:35.141Z,4.60
2023-02-19T06:06:09.549Z,4.70
2023-02-19T06:08:43.044Z,4.97
2023-02-19T06:11:16.524Z,4.35
2023-02-19T06:13:51.479Z,5.88
2023-02-19T06:16:25.227Z,3.90
2023-02-19T06:18:59.028Z,3.95
2023-02-19T06:21:32.720Z,3.25
2023-02-19T06:24:07.643Z,4.15
2023-02-19T06:26:41.124Z,4.00
2023-02-19T06:29:15.994Z,3.28
2023-02-19T06:31:49.599Z,3.83
2023-02-19T06:34:23.086Z,3.90
2023-02-19T06:36:57.892Z,5.30
2023-02-19T06:39:31.526Z,5.35
2023-02-19T06:42:05.404Z,5.78
2023-02-19T06:44:41.494Z,8.23
2023-02-19T06:47:15.991Z,10.75
2023-02-19T06:49:51.529Z,13.13
2023-02-19T06:52:25.358Z,25.92
2023-02-19T06:54:59.418Z,19.77
2023-02-19T06:57:33.097Z,10.45
2023-02-19T07:00:09.661Z,11.70
2023-02-19T07:02:43.211Z,8.95
2023-02-19T07:05:16.778Z,8.23
2023-02-19T07:07:50.419Z,11.38
2023-02-19T07:10:23.957Z,9.38
2023-02-19T07:12:57.616Z,8.68
2023-02-19T07:15:32.567Z,12.75
2023-02-19T07:18:10.329Z,11.93
2023-02-19T07:20:43.801Z,10.25
2023-02-19T07:23:17.248Z,10.88
2023-02-19T07:25:50.690Z,11.02
2023-02-19T07:28:24.238Z,11.70
2023-02-19T07:31:03.845Z,14.02
2023-02-19T07:33:37.600Z,15.60
2023-02-19T07:36:11.483Z,11.93
2023-02-19T07:38:45.112Z,13.27
2023-02-19T07:41:18.589Z,11.73
2023-02-19T07:43:52.121Z,10.40
2023-02-19T07:46:27.439Z,10.07
2023-02-19T07:49:01.405Z,9.93
2023-02-19T07:51:34.922Z,10.77
2023-02-19T07:54:08.592Z,15.80
2023-02-19T07:56:42.143Z,13.18
2023-02-19T07:59:15.920Z,10.68
2023-02-19T08:02:07.839Z,13.23
2023-02-19T08:04:41.852Z,14.03
2023-02-19T08:07:15.471Z,13.15
2023-02-19T08:10:08.952Z,11.00
2023-02-19T08:13:00.110Z,13.25
2023-02-19T08:15:34.590Z,11.30
2023-02-19T08:18:09.912Z,13.23
2023-02-19T08:20:43.661Z,10.63
2023-02-19T08:23:17.788Z,13.15
2023-02-19T08:25:52.871Z,15.27
2023-02-19T08:28:26.417Z,8.88
2023-02-19T08:31:02.183Z,5.32
2023-02-19T08:33:38.784Z,5.10
2023-02-19T08:36:12.902Z,2.35
2023-02-19T08:38:46.381Z,3.58
2023-02-19T08:41:19.901Z,1.60
2023-02-19T08:43:53.374Z,1.83
2023-02-19T08:46:27.289Z,1.65
2023-02-19T08:49:02.183Z,2.08
2023-02-19T08:51:35.684Z,2.55
2023-02-19T08:54:09.231Z,2.97
2023-02-19T08:56:42.676Z,1.85
2023-02-19T08:59:16.229Z,2.53
2023-02-19T09:01:49.707Z,1.83
2023-02-19T09:04:24.636Z,2.80
2023-02-19T09:06:58.211Z,3.42
2023-02-19T09:09:31.706Z,2.58
2023-02-19T09:12:06.353Z,3.08
2023-02-19T09:14:40.247Z,2.88
2023-02-19T09:17:13.972Z,2.63
2023-02-19T09:19:50.808Z,2.78
2023-02-19T09:22:24.407Z,3.88
2023-02-19T09:24:57.891Z,3.45
2023-02-19T09:27:32.422Z,2.10
2023-02-19T09:30:06.577Z,2.42
2023-02-19T09:32:40.278Z,2.72
2023-02-19T09:35:15.250Z,3.05
2023-02-19T09:37:48.757Z,2.67
2023-02-19T09:40:22.819Z,2.00
2023-02-19T09:42:56.363Z,2.20
2023-02-19T09:45:30.270Z,1.73
2023-02-19T09:48:06.237Z,2.38
2023-02-19T09:50:42.981Z,4.03
2023-02-19T09:53:21.466Z,3.17
2023-02-19T09:55:55.499Z,5.03
2023-02-19T09:58:33.395Z,2.50
2023-02-19T10:01:10.031Z,3.08
2023-02-19T10:03:47.179Z,5.97
2023-02-19T10:06:24.683Z,4.60
2023-02-19T10:09:12.576Z,4.32
2023-02-19T10:11:46.850Z,3.08
2023-02-19T10:14:25.733Z,6.70
2023-02-19T10:17:02.275Z,7.90
2023-02-19T10:19:37.235Z,5.40
2023-02-19T10:22:13.135Z,4.32
2023-02-19T10:24:51.882Z,6.10
2023-02-19T10:27:30.987Z,2.67
2023-02-19T10:30:05.062Z,5.07
2023-02-19T10:32:42.255Z,5.15
2023-02-19T10:35:17.640Z,3.58
2023-02-19T10:37:53.365Z,5.75
2023-02-19T10:40:28.652Z,3.85
2023-02-19T10:43:05.043Z,2.13
2023-02-19T10:45:47.731Z,1.80
2023-02-19T10:51:05.038Z,1.40
2023-02-19T10:53:46.410Z,1.15
2023-02-19T10:56:25.964Z,1.30
2023-02-19T10:59:16.787Z,1.20
2023-02-19T11:01:58.724Z,1.17
2023-02-19T11:04:35.565Z,1.27
2023-02-19T11:07:10.911Z,1.20
2023-02-19T11:09:48.499Z,1.77
2023-02-19T11:12:26.994Z,2.80
2023-02-19T11:15:14.245Z,2.67
2023-02-19T11:17:55.964Z,2.17
2023-02-19T11:20:32.172Z,1.65
2023-02-19T11:23:16.118Z,1.30
2023-02-19T11:25:54.115Z,1.40
2023-02-19T11:28:33.749Z,1.33
2023-02-19T11:31:24.830Z,1.00
2023-02-19T11:34:00.187Z,1.05
2023-02-19T11:36:35.540Z,0.70
2023-02-19T11:39:27.807Z,0.35
2023-02-19T11:42:23.426Z,0.50
2023-02-19T11:45:16.665Z,0.55
2023-02-19T11:48:09.668Z,0.38
2023-02-19T11:50:52.605Z,0.55
2023-02-19T11:53:28.688Z,0.57
2023-02-19T11:56:16.175Z,0.60
2023-02-19T11:59:01.656Z,1.13
2023-02-19T12:01:55.276Z,2.70
2023-02-19T12:05:18.565Z,5.78
2023-02-19T12:08:23.012Z,0.45
2023-02-19T12:11:17.474Z,0.80
2023-02-19T12:14:09.770Z,0.57
2023-02-19T12:16:49.084Z,0.73
2023-02-19T12:19:59.471Z,0.30
2023-02-19T12:22:34.758Z,0.20
2023-02-19T12:25:34.333Z,0.30
2023-02-19T12:28:35.247Z,0.30
2023-02-19T12:31:28.504Z,0.45
2023-02-19T12:34:32.795Z,0.28
2023-02-19T12:37:19.777Z,0.52
2023-02-19T12:40:04.133Z,0.30
2023-02-19T12:42:52.374Z,0.52
2023-02-19T12:45:32.974Z,0.47
2023-02-19T12:48:21.290Z,0.82
2023-02-19T12:50:58.890Z,0.95
2023-02-19T12:53:42.149Z,0.22
2023-02-19T12:56:22.171Z,0.95
2023-02-19T12:59:00.227Z,0.73
2023-02-19T13:01:36.934Z,0.52
2023-02-19T13:04:23.923Z,0.73
2023-02-19T13:07:02.488Z,0.60
2023-02-19T13:09:39.690Z,0.63
2023-02-19T13:12:19.602Z,0.50
2023-02-19T13:14:57.468Z,0.80
2023-02-19T13:17:36.905Z,0.57
2023-02-19T13:20:19.705Z,0.43
2023-02-19T13:23:18.439Z,0.57
2023-02-19T13:26:17.190Z,0.35
2023-02-19T13:29:07.710Z,0.35
2023-02-19T13:31:59.177Z,0.40
2023-02-19T13:34:54.800Z,0.43
2023-02-19T13:37:34.342Z,0.40
2023-02-19T13:40:23.870Z,0.63
2023-02-19T13:42:59.820Z,0.80
2023-02-19T13:45:36.205Z,0.65
2023-02-19T13:48:28.537Z,0.88
2023-02-19T13:51:40.576Z,0.57
2023-02-19T13:54:29.535Z,0.45
2023-02-19T13:57:28.779Z,0.32
2023-02-19T14:00:03.020Z,0.60
2023-02-19T14:02:40.199Z,0.52
2023-02-19T14:05:13.735Z,0.52
2023-02-19T14:07:54.084Z,1.10
2023-02-19T14:11:02.755Z,0.70
2023-02-19T14:13:59.460Z,0.90
2023-02-19T14:16:50.137Z,0.60
2023-02-19T14:19:47.571Z,1.00
2023-02-19T14:22:51.506Z,1.20
2023-02-19T14:25:47.247Z,1.20
2023-02-19T14:28:33.637Z,1.25
2023-02-19T14:31:28.128Z,1.05
2023-02-19T14:34:04.433Z,1.13
2023-02-19T14:36:45.259Z,0.52
2023-02-19T14:39:22.827Z,0.70
2023-02-19T14:41:59.473Z,0.95
2023-02-19T14:44:45.174Z,1.40
2023-02-19T14:47:21.280Z,2.20
2023-02-19T14:49:59.586Z,1.75
2023-02-19T14:52:40.276Z,2.90
2023-02-19T14:55:23.383Z,3.10
2023-02-19T14:57:59.621Z,3.42
2023-02-19T15:03:42.105Z,1.75
2023-02-19T15:06:20.243Z,1.80
2023-02-19T15:08:57.020Z,1.63
2023-02-19T15:11:33.120Z,0.75
2023-02-19T15:14:08.369Z,0.68
2023-02-19T15:16:41.971Z,0.88
2023-02-19T15:19:18.237Z,0.60
2023-02-19T15:21:52.263Z,0.77
2023-02-19T15:24:26.312Z,1.90
2023-02-19T15:26:59.938Z,1.30
2023-02-19T15:29:33.454Z,1.20
2023-02-19T15:32:18.661Z,0.45
2023-02-19T15:34:58.578Z,0.82
2023-02-19T15:37:36.402Z,0.52
2023-02-19T15:40:15.130Z,0.80
2023-02-19T15:42:49.345Z,0.55
2023-02-19T15:45:27.599Z,0.57
2023-02-19T15:48:05.883Z,0.70
2023-02-19T15:50:44.117Z,0.68
2023-02-19T15:53:20.094Z,0.85
2023-02-19T15:56:01.398Z,0.75
2023-02-19T15:58:42.712Z,1.08
2023-02-19T16:01:21.713Z,0.73
2023-02-19T16:03:56.067Z,0.95
2023-02-19T16:06:31.217Z,0.80
2023-02-19T16:09:06.641Z,1.23
2023-02-19T16:11:41.144Z,1.10
2023-02-19T16:14:19.458Z,1.10
2023-02-19T16:16:55.798Z,1.25
2023-02-19T16:19:32.455Z,1.40
2023-02-19T16:22:11.689Z,1.70
2023-02-19T16:24:47.571Z,1.73
2023-02-19T16:27:31.755Z,1.52
2023-02-19T16:30:10.623Z,1.50
2023-02-19T16:32:45.427Z,1.52
2023-02-19T16:35:37.449Z,1.50
2023-02-19T16:38:15.700Z,1.63
2023-02-19T16:41:12.125Z,1.85
2023-02-19T16:43:45.894Z,1.38
2023-02-19T16:46:20.020Z,1.67
2023-02-19T16:48:53.611Z,1.70
2023-02-19T16:51:28.367Z,2.10
2023-02-19T16:54:03.231Z,1.75
2023-02-19T16:56:37.070Z,1.77
2023-02-19T16:59:10.614Z,2.28
2023-02-19T17:01:44.225Z,1.67
2023-02-19T17:04:17.877Z,1.65
2023-02-19T17:06:51.381Z,2.38
2023-02-19T17:09:26.305Z,1.73
2023-02-19T17:11:59.947Z,2.38
2023-02-19T17:14:33.449Z,2.17
2023-02-19T17:17:07.313Z,1.90
2023-02-19T17:19:41.064Z,2.17
2023-02-19T17:22:17.413Z,1.90
2023-02-19T17:24:52.362Z,2.17
2023-02-19T17:27:26.126Z,2.13
2023-02-19T17:29:59.890Z,2.35
2023-02-19T17:32:33.609Z,2.65
2023-02-19T17:35:07.972Z,2.40
2023-02-19T17:37:41.569Z,2.20
2023-02-19T17:40:32.224Z,2.42
2023-02-19T17:43:06.540Z,2.20
2023-02-19T17:45:40.295Z,2.35
2023-02-19T17:48:14.894Z,3.13
2023-02-19T17:50:49.326Z,2.85
2023-02-19T17:53:22.888Z,2.45
2023-02-19T17:55:57.872Z,2.97
2023-02-19T17:58:31.372Z,3.40
2023-02-19T18:01:05.123Z,3.58
2023-02-19T18:03:38.749Z,2.97
2023-02-19T18:06:12.285Z,2.70
2023-02-19T18:08:50.509Z,2.38
2023-02-19T18:11:25.523Z,2.40
2023-02-19T18:13:59.655Z,2.50
2023-02-19T18:16:33.197Z,4.55
2023-02-19T18:19:08.865Z,4.05
2023-02-19T18:21:42.419Z,3.10
2023-02-19T18:24:16.374Z,2.78
2023-02-19T18:26:51.379Z,2.60
2023-02-19T18:29:27.050Z,2.60
2023-02-19T18:32:00.651Z,2.20
2023-02-19T18:34:34.298Z,4.35
2023-02-19T18:37:07.860Z,3.15
2023-02-19T18:39:41.426Z,3.47
2023-02-19T18:42:16.707Z,2.40
2023-02-19T18:44:51.122Z,3.05
2023-02-19T18:47:26.452Z,2.58
2023-02-19T18:50:00.851Z,2.58
2023-02-19T18:52:34.368Z,3.20
2023-02-19T18:55:09.132Z,2.30
2023-02-19T18:57:44.246Z,2.70
2023-02-19T19:00:20.795Z,5.50
2023-02-19T19:02:58.414Z,3.22
2023-02-19T19:05:32.070Z,4.22
2023-02-19T19:08:05.995Z,9.25
2023-02-19T19:10:39.542Z,5.90
2023-02-19T19:13:14.847Z,4.07
2023-02-19T19:15:51.462Z,4.90
2023-02-19T19:18:25.388Z,3.22
2023-02-19T19:21:03.209Z,3.08
2023-02-19T19:23:36.999Z,2.33
2023-02-19T19:26:11.283Z,2.58
2023-02-19T19:28:46.677Z,2.22
2023-02-19T19:31:21.958Z,2.55
2023-02-19T19:33:55.558Z,2.90
2023-02-19T19:36:29.176Z,2.42
2023-02-19T19:39:02.952Z,1.63
2023-02-19T19:41:36.714Z,2.33
2023-02-19T19:44:11.704Z,2.85
2023-02-19T19:46:46.097Z,1.70
2023-02-19T19:49:20.168Z,2.22
2023-02-19T19:51:53.745Z,2.85
2023-02-19T19:54:27.310Z,2.58
2023-02-19T19:57:01.500Z,1.92
2023-02-19T19:59:39.170Z,2.42
2023-02-19T20:02:13.734Z,3.78
2023-02-19T20:04:47.731Z,2.65
2023-02-19T20:07:21.719Z,2.03
2023-02-19T20:09:55.367Z,1.85
2023-02-19T20:12:30.194Z,2.22
2023-02-19T20:15:05.907Z,1.80
2023-02-19T20:17:39.753Z,2.75
2023-02-19T20:20:13.717Z,2.58
2023-02-19T20:22:47.320Z,2.47
2023-02-19T20:25:22.132Z,1.77
2023-02-19T20:27:55.923Z,2.13
2023-02-19T20:30:31.061Z,1.98
2023-02-19T20:33:04.687Z,2.22
2023-02-19T20:35:38.442Z,2.30
2023-02-19T20:38:15.983Z,2.30
2023-02-19T20:40:49.508Z,2.58
2023-02-19T20:43:23.065Z,2.42
2023-02-19T20:45:58.012Z,2.70
2023-02-19T20:48:31.619Z,2.75
2023-02-19T20:51:05.540Z,3.10
2023-02-19T20:53:40.770Z,2.58
2023-02-19T20:56:14.558Z,2.47
2023-02-19T20:58:48.113Z,2.67
2023-02-19T21:01:28.916Z,2.45
2023-02-19T21:04:03.666Z,3.15
2023-02-19T21:06:37.623Z,3.20
2023-02-19T21:09:11.971Z,2.25
2023-02-19T21:11:45.716Z,2.72
2023-02-19T21:14:19.660Z,2.40
2023-02-19T21:16:54.853Z,2.53
2023-02-19T21:19:28.531Z,3.72
2023-02-19T21:22:02.221Z,1.80
2023-02-19T21:24:35.756Z,4.13
2023-02-19T21:27:09.694Z,2.40
2023-02-19T21:29:43.270Z,2.33
2023-02-19T21:32:18.539Z,2.83
2023-02-19T21:34:52.167Z,2.53
2023-02-19T21:37:25.765Z,2.58
2023-02-19T21:40:00.555Z,1.92
2023-02-19T21:42:34.287Z,2.25
2023-02-19T21:45:08.760Z,2.88
2023-02-19T21:47:44.129Z,2.25
2023-02-19T21:50:17.803Z,1.88
2023-02-19T21:52:51.633Z,2.22
2023-02-19T21:55:25.321Z,2.88
2023-02-19T21:57:59.607Z,2.45
2023-02-19T22:00:33.355Z,3.17
2023-02-19T22:03:08.888Z,2.40
2023-02-19T22:05:42.420Z,2.75
2023-02-19T22:08:17.537Z,3.08
2023-02-19T22:10:51.093Z,2.20
2023-02-19T22:13:25.169Z,2.20
2023-02-19T22:15:58.775Z,2.10
2023-02-19T22:18:33.778Z,2.42
2023-02-19T22:21:07.738Z,1.75
2023-02-19T22:23:44.426Z,2.22
2023-02-19T22:26:22.380Z,2.40
2023-02-19T22:28:56.359Z,2.17
2023-02-19T22:31:30.129Z,2.58
2023-02-19T22:34:05.699Z,1.90
2023-02-19T22:36:39.820Z,1.90
2023-02-19T22:39:19.284Z,2.08
2023-02-19T22:41:53.494Z,2.22
2023-02-19T22:44:27.025Z,1.75
2023-02-19T22:47:00.537Z,1.90
2023-02-19T22:49:38.555Z,1.88
2023-02-19T22:52:13.756Z,1.65
2023-02-19T22:54:47.818Z,1.50
2023-02-19T22:57:21.371Z,1.80
2023-02-19T22:59:55.177Z,1.33
2023-02-19T23:02:28.760Z,2.30
2023-02-19T23:05:03.635Z,1.77
2023-02-19T23:07:37.110Z,1.42
2023-02-19T23:10:11.172Z,1.30
2023-02-19T23:12:44.702Z,2.33
2023-02-19T23:15:18.331Z,2.17
2023-02-19T23:17:51.788Z,2.13
2023-02-19T23:20:26.799Z,1.70
2023-02-19T23:23:00.265Z,1.85
2023-02-19T23:25:33.829Z,1.50
2023-02-19T23:28:07.329Z,0.90
2023-02-19T23:30:40.941Z,1.80
2023-02-19T23:33:14.581Z,1.40
2023-02-19T23:35:49.714Z,1.65
2023-02-19T23:38:23.321Z,1.45
2023-02-19T23:40:57.089Z,1.70
2023-02-19T23:43:30.900Z,2.42
2023-02-19T23:46:04.792Z,1.30
2023-02-19T23:48:38.322Z,2.08
2023-02-19T23:51:13.247Z,1.27
2023-02-19T23:53:46.809Z,1.85
2023-02-19T23:56:24.751Z,1.73
2023-02-19T23:58:58.227Z,1.45
